Time;durP1;ratioP1;P1;durP2;ratioP2;P2;SDS_P1;SDS_P2;PMS_P1;PMS_P2;Temp;Humidity;BMP_temperature;BMP_pressure;BME280_temperature;BME280_humidity;BME280_pressure;Samples;Min_cycle;Max_cycle;Signal;HPM_P1;HPM_P2
2023/01/23 00:00:58;;;;;;;17.70;10.18;;;4.40;66.40;;;;;;5072187;28;20488;-13
2023/01/23 00:03:24;;;;;;;17.50;9.77;;;4.40;66.30;;;;;;5072729;28;20039;-13
2023/01/23 00:05:57;;;;;;;18.10;9.38;;;4.40;66.50;;;;;;5072534;28;20031;-12
2023/01/23 00:08:24;;;;;;;15.90;9.25;;;4.50;66.50;;;;;;5072573;28;20110;-13
2023/01/23 00:10:50;;;;;;;15.07;8.85;;;4.50;66.50;;;;;;5072382;28;20415;-13
2023/01/23 00:13:16;;;;;;;15.88;8.25;;;4.50;66.30;;;;;;5072373;28;20085;-12
2023/01/23 00:15:42;;;;;;;14.60;8.13;;;4.60;66.30;;;;;;5072871;28;20025;-13
2023/01/23 00:18:08;;;;;;;14.88;8.07;;;4.60;66.10;;;;;;5072275;28;20468;-12
2023/01/23 00:20:37;;;;;;;15.75;8.38;;;4.60;65.90;;;;;;5072244;28;20097;-13
2023/01/23 00:23:03;;;;;;;16.20;8.32;;;4.70;65.80;;;;;;5071964;28;20082;-14
2023/01/23 00:25:29;;;;;;;13.50;7.75;;;4.70;65.90;;;;;;5072990;28;20488;-13
2023/01/23 00:27:55;;;;;;;15.38;8.32;;;4.70;65.90;;;;;;5072166;28;20534;-14
2023/01/23 00:30:21;;;;;;;14.90;8.02;;;4.70;65.70;;;;;;5072129;28;20032;-13
2023/01/23 00:32:46;;;;;;;13.25;7.45;;;4.70;65.90;;;;;;5071828;28;20031;-13
2023/01/23 00:35:12;;;;;;;12.25;7.45;;;4.80;65.80;;;;;;5071904;28;20041;-14
2023/01/23 00:37:38;;;;;;;12.55;7.25;;;4.70;65.80;;;;;;5070616;28;20075;-14
2023/01/23 00:40:05;;;;;;;13.05;7.03;;;4.80;65.90;;;;;;5070723;28;20067;-13
2023/01/23 00:42:30;;;;;;;15.07;7.15;;;4.80;65.80;;;;;;5072101;28;20119;-13
2023/01/23 00:44:56;;;;;;;12.02;6.90;;;4.80;65.70;;;;;;5071741;28;20381;-13
2023/01/23 00:47:22;;;;;;;12.15;6.90;;;4.80;65.70;;;;;;5072250;28;20020;-13
2023/01/23 00:49:48;;;;;;;12.85;6.82;;;4.80;65.80;;;;;;5074906;28;20472;-13
2023/01/23 00:52:14;;;;;;;13.10;7.15;;;4.80;65.70;;;;;;5075440;28;20032;-14
2023/01/23 00:54:40;;;;;;;10.38;5.75;;;4.80;65.80;;;;;;5074210;28;20033;-14
2023/01/23 00:57:06;;;;;;;11.25;6.10;;;4.80;65.90;;;;;;5075184;28;20028;-14
2023/01/23 00:59:32;;;;;;;12.82;6.78;;;4.80;66.00;;;;;;5075409;28;20031;-15
2023/01/23 01:01:58;;;;;;;11.20;6.35;;;4.80;66.00;;;;;;5075367;28;20025;-14
2023/01/23 01:04:24;;;;;;;11.32;6.60;;;4.80;66.00;;;;;;5075578;28;20063;-14
2023/01/23 01:06:50;;;;;;;11.00;6.50;;;4.80;66.00;;;;;;5075182;28;20044;-15
2023/01/23 01:09:16;;;;;;;10.45;5.68;;;4.80;66.00;;;;;;5075590;28;20044;-14
2023/01/23 01:11:41;;;;;;;12.00;6.47;;;4.90;65.90;;;;;;5075749;28;20041;-14
2023/01/23 01:14:08;;;;;;;10.48;6.30;;;4.90;66.10;;;;;;5075515;28;20064;-15
2023/01/23 01:16:35;;;;;;;10.20;5.28;;;4.80;66.10;;;;;;5076180;28;20063;-13
2023/01/23 01:19:00;;;;;;;9.85;5.70;;;4.80;66.20;;;;;;5073725;28;20036;-13
2023/01/23 01:22:04;;;;;;;10.90;5.68;;;4.90;66.10;;;;;;5075425;28;20032;-14
2023/01/23 01:25:06;;;;;;;11.40;5.90;;;4.80;66.10;;;;;;5075266;28;20115;-13
2023/01/23 01:28:10;;;;;;;9.35;5.20;;;4.90;66.20;;;;;;5073696;28;20024;-13
2023/01/23 01:31:13;;;;;;;10.80;5.43;;;4.90;66.10;;;;;;5075209;28;20132;-15
2023/01/23 01:34:16;;;;;;;10.85;5.30;;;4.90;66.10;;;;;;5074759;28;20133;-13
2023/01/23 01:37:21;;;;;;;11.30;5.80;;;4.90;66.20;;;;;;5074764;28;20040;-14
2023/01/23 01:40:24;;;;;;;12.10;6.00;;;4.90;66.20;;;;;;5074987;28;20027;-14
2023/01/23 01:43:27;;;;;;;12.52;6.53;;;5.00;66.30;;;;;;5074417;28;20442;-15
2023/01/23 01:46:31;;;;;;;11.52;6.68;;;5.00;66.20;;;;;;5074538;28;20413;-13
2023/01/23 01:49:34;;;;;;;13.52;7.40;;;4.90;66.40;;;;;;5074926;28;20020;-13
2023/01/23 01:52:37;;;;;;;14.68;6.95;;;4.90;66.40;;;;;;5074717;28;20032;-14
2023/01/23 01:55:40;;;;;;;11.70;6.80;;;4.90;66.50;;;;;;5074124;28;20415;-12
2023/01/23 01:58:43;;;;;;;14.65;7.18;;;4.80;66.60;;;;;;5074623;28;20057;-12
2023/01/23 02:01:46;;;;;;;16.30;7.70;;;4.80;66.60;;;;;;5073629;28;20035;-14
2023/01/23 02:04:49;;;;;;;14.40;7.68;;;4.80;66.70;;;;;;5074238;28;20132;-14
2023/01/23 02:07:53;;;;;;;13.48;7.07;;;4.80;66.70;;;;;;5075166;28;20036;-14
2023/01/23 02:10:56;;;;;;;15.53;8.00;;;4.80;66.80;;;;;;5074453;28;20071;-13
2023/01/23 02:13:59;;;;;;;13.57;7.43;;;4.80;66.80;;;;;;5074088;28;20023;-14
2023/01/23 02:17:03;;;;;;;13.88;7.20;;;4.80;66.70;;;;;;5073825;28;20481;-14
2023/01/23 02:20:05;;;;;;;13.18;7.55;;;4.90;66.60;;;;;;5074258;28;20048;-13
2023/01/23 02:23:09;;;;;;;13.32;8.05;;;4.90;66.60;;;;;;5072663;28;20063;-14
2023/01/23 02:26:12;;;;;;;14.27;7.82;;;4.90;66.60;;;;;;5072586;28;20025;-14
2023/01/23 02:29:18;;;;;;;12.57;7.38;;;4.90;66.50;;;;;;5073938;28;20032;-13
2023/01/23 02:32:23;;;;;;;13.50;7.88;;;4.90;66.40;;;;;;5073751;28;20040;-14
2023/01/23 02:35:26;;;;;;;11.35;6.72;;;4.90;66.30;;;;;;5073190;28;20040;-15
2023/01/23 02:38:33;;;;;;;14.85;7.47;;;5.00;66.30;;;;;;5073555;28;20051;-13
2023/01/23 02:41:36;;;;;;;12.07;6.57;;;5.00;66.30;;;;;;5073238;28;20040;-13
2023/01/23 02:44:39;;;;;;;12.35;6.72;;;4.90;66.20;;;;;;5073754;28;20028;-13
2023/01/23 02:47:41;;;;;;;10.95;6.88;;;5.00;66.30;;;;;;5073231;28;20028;-14
2023/01/23 02:50:45;;;;;;;11.85;6.85;;;5.00;66.20;;;;;;5073267;28;20116;-14
2023/01/23 02:53:11;;;;;;;14.25;7.15;;;5.00;66.30;;;;;;5073283;28;20044;-12
2023/01/23 02:55:42;;;;;;;13.13;7.20;;;5.00;66.20;;;;;;5073479;28;20055;-14
2023/01/23 03:00:52;;;;;;;11.35;6.63;;;5.00;66.30;;;;;;5073387;28;20466;-13
2023/01/23 03:03:18;;;;;;;12.27;7.10;;;5.00;66.40;;;;;;5073045;28;20024;-12
2023/01/23 03:05:45;;;;;;;9.23;5.53;;;4.90;66.40;;;;;;5073049;28;20099;-13
2023/01/23 03:08:11;;;;;;;8.70;5.35;;;5.00;66.40;;;;;;5073081;28;20028;-13
2023/01/23 03:10:37;;;;;;;8.48;5.20;;;5.00;66.80;;;;;;5073023;28;20029;-13
2023/01/23 03:13:06;;;;;;;13.55;6.93;;;5.00;66.70;;;;;;5071899;28;20025;-13
2023/01/23 03:15:33;;;;;;;11.80;7.20;;;5.00;66.70;;;;;;5073157;28;20029;-12
2023/01/23 03:17:59;;;;;;;13.73;7.00;;;5.00;66.80;;;;;;5073286;28;20028;-13
2023/01/23 03:20:26;;;;;;;8.52;5.13;;;5.00;66.80;;;;;;5073028;28;20016;-15
2023/01/23 03:22:53;;;;;;;13.48;7.38;;;5.00;66.90;;;;;;5072484;28;20035;-14
2023/01/23 03:25:19;;;;;;;13.95;6.85;;;5.00;67.10;;;;;;5072823;28;20024;-15
2023/01/23 03:27:45;;;;;;;11.13;6.22;;;5.00;67.10;;;;;;5073105;28;20074;-14
2023/01/23 03:30:12;;;;;;;10.68;6.35;;;5.00;67.10;;;;;;5072967;28;20071;-13
2023/01/23 03:32:39;;;;;;;9.88;5.82;;;5.00;67.40;;;;;;5072903;28;20024;-13
2023/01/23 03:35:06;;;;;;;14.75;7.25;;;5.00;67.40;;;;;;5072322;28;20526;-12
2023/01/23 03:37:32;;;;;;;15.27;8.10;;;5.00;67.70;;;;;;5072608;28;20013;-14
2023/01/23 03:42:42;;;;;;;;;;;4.90;67.70;;;;;;5073100;28;20035;-13
2023/01/23 03:45:08;;;;;;;9.70;5.93;;;4.90;67.60;;;;;;5072716;28;19909;-14
2023/01/23 03:47:34;;;;;;;11.63;6.47;;;4.90;67.70;;;;;;5072844;28;20024;-13
2023/01/23 03:50:00;;;;;;;12.38;6.75;;;4.90;67.70;;;;;;5072587;28;20090;-14
2023/01/23 03:52:25;;;;;;;15.35;7.72;;;5.00;67.80;;;;;;5072569;28;20119;-14
2023/01/23 03:54:51;;;;;;;11.93;7.00;;;5.10;67.90;;;;;;5072355;28;20028;-13
2023/01/23 03:57:18;;;;;;;13.20;6.82;;;5.00;68.30;;;;;;5072403;28;20028;-12
2023/01/23 03:59:44;;;;;;;15.35;7.95;;;5.10;68.60;;;;;;5072765;28;20032;-13
2023/01/23 04:02:10;;;;;;;13.73;7.32;;;5.20;68.70;;;;;;5072687;28;20052;-12
2023/01/23 04:04:35;;;;;;;15.18;7.93;;;5.10;69.10;;;;;;5073016;28;20055;-13
2023/01/23 04:07:02;;;;;;;12.00;7.10;;;5.00;68.80;;;;;;5072457;28;20033;-13
2023/01/23 04:09:28;;;;;;;13.40;7.82;;;5.00;69.20;;;;;;5072788;28;20033;-13
2023/01/23 04:11:55;;;;;;;13.27;8.23;;;5.00;69.20;;;;;;5072315;28;20028;-13
2023/01/23 04:14:23;;;;;;;12.10;6.78;;;4.90;69.40;;;;;;5072261;28;20457;-14
2023/01/23 04:16:49;;;;;;;15.27;7.72;;;4.90;69.90;;;;;;5072150;28;20080;-13
2023/01/23 04:19:18;;;;;;;13.35;6.85;;;4.80;70.20;;;;;;5072309;28;20056;-12
2023/01/23 04:21:45;;;;;;;6.80;3.65;;;4.80;70.40;;;;;;5072117;28;20107;-14
2023/01/23 04:24:11;;;;;;;7.63;3.95;;;5.00;70.80;;;;;;5074456;28;20029;-12
2023/01/23 04:26:37;;;;;;;7.13;4.15;;;5.20;71.70;;;;;;5076104;28;20112;-14
2023/01/23 04:29:03;;;;;;;8.15;4.20;;;5.40;71.20;;;;;;5075848;28;20059;-13
2023/01/23 04:31:30;;;;;;;6.47;3.67;;;5.50;71.40;;;;;;5076406;28;20025;-12
2023/01/23 04:33:55;;;;;;;7.97;3.42;;;5.60;71.80;;;;;;5075728;28;20478;-12
2023/01/23 04:36:21;;;;;;;5.38;3.25;;;5.70;71.00;;;;;;5075764;28;20124;-13
2023/01/23 04:38:47;;;;;;;2.95;1.95;;;5.90;70.40;;;;;;5075772;28;20056;-13
2023/01/23 04:41:21;;;;;;;3.00;2.38;;;6.20;70.30;;;;;;5076027;28;20059;-12
2023/01/23 04:43:47;;;;;;;4.97;2.78;;;6.40;70.60;;;;;;5076005;28;20047;-13
2023/01/23 04:46:13;;;;;;;4.95;2.90;;;6.60;70.90;;;;;;5075696;28;20107;-13
2023/01/23 04:48:39;;;;;;;4.95;2.88;;;6.70;70.80;;;;;;5075716;28;20032;-12
2023/01/23 04:51:05;;;;;;;5.57;2.83;;;6.80;70.40;;;;;;5075745;28;20043;-14
2023/01/23 04:53:31;;;;;;;3.55;2.22;;;6.80;70.20;;;;;;5076110;28;20024;-12
2023/01/23 04:55:57;;;;;;;2.55;1.85;;;6.90;71.30;;;;;;5075489;28;20073;-13
2023/01/23 04:58:22;;;;;;;3.95;2.22;;;7.00;71.70;;;;;;5075597;28;20031;-13
2023/01/23 05:00:48;;;;;;;4.28;2.30;;;7.10;71.40;;;;;;5075259;28;20025;-11
2023/01/23 05:03:14;;;;;;;3.70;2.35;;;7.10;70.90;;;;;;5076009;28;20028;-12
2023/01/23 05:05:42;;;;;;;5.15;2.60;;;7.10;71.30;;;;;;5075272;28;20016;-13
2023/01/23 05:08:09;;;;;;;4.43;2.35;;;7.10;70.70;;;;;;5075388;28;20038;-12
2023/01/23 05:10:35;;;;;;;3.67;2.33;;;7.00;70.40;;;;;;5075710;28;20113;-13
2023/01/23 05:13:01;;;;;;;5.13;2.47;;;7.10;70.70;;;;;;5075344;28;20191;-13
2023/01/23 05:15:27;;;;;;;5.25;2.72;;;7.00;71.20;;;;;;5075382;28;20143;-13
2023/01/23 05:17:53;;;;;;;4.55;2.50;;;6.90;72.60;;;;;;5075591;28;20524;-12
2023/01/23 05:20:19;;;;;;;4.97;2.17;;;6.90;73.10;;;;;;5075473;28;20028;-13
2023/01/23 05:22:51;;;;;;;4.50;2.65;;;6.80;73.40;;;;;;5075292;28;20025;-12
2023/01/23 05:25:21;;;;;;;4.50;2.67;;;6.70;73.80;;;;;;5075418;28;20033;-13
2023/01/23 05:27:47;;;;;;;5.30;2.55;;;6.70;75.00;;;;;;5075060;28;20395;-14
2023/01/23 05:30:13;;;;;;;7.38;2.97;;;6.50;76.00;;;;;;5074910;28;20025;-13
2023/01/23 05:32:39;;;;;;;5.45;2.75;;;6.50;75.70;;;;;;5073826;28;20366;-13
2023/01/23 05:35:06;;;;;;;5.90;2.95;;;6.40;75.70;;;;;;5073574;28;20511;-14
2023/01/23 05:37:32;;;;;;;5.00;2.70;;;6.30;76.50;;;;;;5074236;28;20017;-13
2023/01/23 05:39:58;;;;;;;6.93;2.65;;;6.30;77.20;;;;;;5075292;28;20112;-13
2023/01/23 05:42:24;;;;;;;4.85;2.80;;;6.30;76.70;;;;;;5074998;28;20039;-14
2023/01/23 05:44:49;;;;;;;4.65;2.92;;;6.20;77.80;;;;;;5074745;28;20376;-12
2023/01/23 05:47:15;;;;;;;6.97;3.55;;;6.20;78.40;;;;;;5074780;28;20032;-13
2023/01/23 05:49:41;;;;;;;5.00;2.70;;;6.10;77.90;;;;;;5074901;28;20112;-12
2023/01/23 05:52:07;;;;;;;4.93;2.65;;;6.10;78.30;;;;;;5074823;28;20368;-12
2023/01/23 05:54:33;;;;;;;5.20;2.67;;;6.10;78.40;;;;;;5074443;28;20108;-13
2023/01/23 05:56:59;;;;;;;5.75;2.90;;;6.10;78.60;;;;;;5074777;28;20025;-12
2023/01/23 05:59:25;;;;;;;5.22;2.90;;;6.10;78.80;;;;;;5074773;28;20469;-13
2023/01/23 06:01:51;;;;;;;5.97;2.92;;;6.10;79.90;;;;;;5074876;28;20388;-12
2023/01/23 06:04:18;;;;;;;5.50;3.20;;;6.10;78.80;;;;;;5074723;28;20035;-14
2023/01/23 06:06:43;;;;;;;5.10;3.05;;;6.10;78.50;;;;;;5074667;28;20066;-12
2023/01/23 06:09:10;;;;;;;6.90;3.00;;;6.00;78.80;;;;;;5074392;28;20109;-13
2023/01/23 06:11:36;;;;;;;4.93;3.05;;;6.00;79.30;;;;;;5073178;28;20051;-14
2023/01/23 06:14:02;;;;;;;4.30;2.58;;;6.00;78.90;;;;;;5074221;28;20476;-13
2023/01/23 06:16:28;;;;;;;5.07;2.90;;;6.00;78.70;;;;;;5074120;28;20032;-14
2023/01/23 06:18:53;;;;;;;3.88;2.67;;;6.00;79.90;;;;;;5074400;28;20016;-14
2023/01/23 06:21:20;;;;;;;4.55;2.88;;;6.00;79.40;;;;;;5072812;28;20029;-14
2023/01/23 06:23:46;;;;;;;9.90;4.45;;;6.00;79.60;;;;;;5074810;28;20020;-13
2023/01/23 06:26:12;;;;;;;7.18;3.58;;;6.00;79.70;;;;;;5073989;28;20017;-13
2023/01/23 06:28:39;;;;;;;7.28;3.00;;;6.00;80.00;;;;;;5072755;28;20060;-14
2023/01/23 06:31:06;;;;;;;4.45;2.80;;;6.00;79.70;;;;;;5072401;28;20024;-13
2023/01/23 06:33:32;;;;;;;5.50;3.20;;;6.10;80.40;;;;;;5073645;28;20455;-15
2023/01/23 06:35:59;;;;;;;3.63;2.80;;;6.10;79.40;;;;;;5073438;28;20036;-14
2023/01/23 06:38:26;;;;;;;5.95;2.80;;;6.10;79.70;;;;;;5074007;28;20059;-14
2023/01/23 06:40:52;;;;;;;6.32;3.05;;;6.10;79.40;;;;;;5073530;28;20024;-13
2023/01/23 06:43:18;;;;;;;5.10;2.80;;;6.10;80.60;;;;;;5073616;28;20032;-14
2023/01/23 06:45:45;;;;;;;6.03;3.60;;;6.10;80.30;;;;;;5073855;28;20017;-13
2023/01/23 06:48:12;;;;;;;8.77;4.22;;;6.10;80.60;;;;;;5073668;28;20193;-12
2023/01/23 06:50:42;;;;;;;6.30;3.40;;;6.10;80.80;;;;;;5073594;28;20027;-14
2023/01/23 06:53:10;;;;;;;4.28;3.00;;;6.10;79.80;;;;;;5073538;28;20472;-13
2023/01/23 06:55:36;;;;;;;6.03;3.03;;;6.10;81.00;;;;;;5073621;28;20040;-13
2023/01/23 06:58:02;;;;;;;3.47;2.63;;;6.20;80.90;;;;;;5073553;28;20032;-13
2023/01/23 07:00:28;;;;;;;4.32;2.80;;;6.20;80.70;;;;;;5073288;28;20499;-13
2023/01/23 07:02:57;;;;;;;5.10;2.80;;;6.20;80.40;;;;;;5072944;28;20025;-14
2023/01/23 07:05:23;;;;;;;3.35;2.00;;;6.30;81.40;;;;;;5073090;28;20400;-13
2023/01/23 07:07:51;;;;;;;2.55;2.00;;;6.40;80.20;;;;;;5073056;28;20020;-12
2023/01/23 07:10:17;;;;;;;2.25;1.92;;;6.60;80.00;;;;;;5073782;28;20016;-12
2023/01/23 07:12:42;;;;;;;2.22;1.67;;;6.60;79.70;;;;;;5072937;28;20039;-12
2023/01/23 07:15:08;;;;;;;2.28;1.73;;;6.80;78.50;;;;;;5073076;28;20029;-12
2023/01/23 07:17:34;;;;;;;2.90;1.90;;;6.90;78.20;;;;;;5073159;28;20046;-13
2023/01/23 07:20:00;;;;;;;4.32;1.90;;;6.90;78.70;;;;;;5071749;28;20373;-13
2023/01/23 07:22:25;;;;;;;1.70;1.55;;;6.90;78.10;;;;;;5072927;28;20070;-13
2023/01/23 07:24:52;;;;;;;4.28;2.10;;;6.90;78.20;;;;;;5073070;28;20103;-12
2023/01/23 07:27:18;;;;;;;2.08;1.55;;;6.90;78.20;;;;;;5072918;28;20550;-12
2023/01/23 07:29:43;;;;;;;2.70;1.60;;;7.00;78.20;;;;;;5072816;28;20044;-11
2023/01/23 07:32:09;;;;;;;2.90;2.17;;;7.00;78.30;;;;;;5073140;28;20039;-12
2023/01/23 07:34:35;;;;;;;1.90;1.70;;;6.90;78.90;;;;;;5072737;28;20041;-12
2023/01/23 07:37:00;;;;;;;3.00;1.80;;;6.90;78.60;;;;;;5072756;28;20032;-13
2023/01/23 07:39:26;;;;;;;3.40;2.13;;;6.90;78.70;;;;;;5071999;28;20380;-13
2023/01/23 07:41:52;;;;;;;5.93;2.13;;;6.90;78.80;;;;;;5072926;28;20020;-13
2023/01/23 07:44:20;;;;;;;3.47;2.13;;;6.90;78.80;;;;;;5072693;28;20020;-13
2023/01/23 07:46:47;;;;;;;3.92;2.42;;;6.90;79.20;;;;;;5073028;28;20472;-13
2023/01/23 07:49:13;;;;;;;4.07;2.42;;;6.90;79.10;;;;;;5072643;28;20024;-13
2023/01/23 07:51:39;;;;;;;4.03;2.70;;;6.90;79.30;;;;;;5072486;28;20060;-10
2023/01/23 07:54:05;;;;;;;4.30;2.53;;;6.90;79.20;;;;;;5071313;28;20044;-11
2023/01/23 07:56:34;;;;;;;5.72;2.42;;;6.90;79.40;;;;;;5072508;28;20055;-11
2023/01/23 07:58:59;;;;;;;6.95;2.90;;;6.90;79.30;;;;;;5071820;28;20029;-10
2023/01/23 08:01:26;;;;;;;4.55;2.40;;;7.00;79.40;;;;;;5072877;28;20016;-11
2023/01/23 08:03:52;;;;;;;4.43;2.40;;;7.00;79.40;;;;;;5072485;28;20559;-11
2023/01/23 08:06:18;;;;;;;4.07;1.92;;;6.90;79.50;;;;;;5071126;28;20111;-12
2023/01/23 08:08:47;;;;;;;5.05;2.40;;;6.90;79.80;;;;;;5072468;28;20108;-12
2023/01/23 08:11:13;;;;;;;5.97;2.72;;;6.80;80.90;;;;;;5072466;28;20107;-12
2023/01/23 08:13:39;;;;;;;4.40;2.78;;;6.80;81.10;;;;;;5072553;28;20438;-12
2023/01/23 08:19:27;;;;;;;6.60;3.10;;;6.60;80.80;;;;;;5072687;28;20078;-13
2023/01/23 08:21:53;;;;;;;7.43;3.10;;;6.50;81.50;;;;;;5070751;28;20036;-13
2023/01/23 08:24:20;;;;;;;4.53;2.88;;;6.60;82.50;;;;;;5072519;28;20041;-12
2023/01/23 08:26:46;;;;;;;6.45;3.55;;;6.50;82.10;;;;;;5072310;28;20024;-14
2023/01/23 08:29:11;;;;;;;4.90;2.85;;;6.50;82.10;;;;;;5072160;28;20029;-13
2023/01/23 08:31:38;;;;;;;4.70;3.03;;;6.50;82.60;;;;;;5072640;28;20069;-12
2023/01/23 08:34:05;;;;;;;5.50;3.45;;;6.50;82.30;;;;;;5072173;28;20061;-12
2023/01/23 08:36:31;;;;;;;5.13;3.25;;;6.50;82.70;;;;;;5071984;28;20036;-13
2023/01/23 08:38:56;;;;;;;6.00;3.53;;;6.50;82.80;;;;;;5072290;28;20036;-12
2023/01/23 08:41:22;;;;;;;6.05;2.85;;;6.60;83.80;;;;;;5072161;28;20020;-11
2023/01/23 08:43:49;;;;;;;4.93;3.10;;;6.60;83.30;;;;;;5072037;28;20064;-12
2023/01/23 08:46:15;;;;;;;4.57;2.83;;;6.60;83.20;;;;;;5072187;28;20502;-13
2023/01/23 08:48:41;;;;;;;4.18;2.80;;;6.60;83.30;;;;;;5072050;28;20029;-12
2023/01/23 08:51:11;;;;;;;6.28;3.72;;;6.60;83.60;;;;;;5071964;28;20031;-12
2023/01/23 08:53:38;;;;;;;6.53;3.30;;;6.60;83.60;;;;;;5072359;28;20017;-11
2023/01/23 08:56:06;;;;;;;2.50;2.03;;;6.60;84.20;;;;;;5070686;28;20059;-12
2023/01/23 08:58:32;;;;;;;4.18;2.30;;;6.70;83.60;;;;;;5072400;28;20035;-12
2023/01/23 09:00:58;;;;;;;4.07;1.60;;;6.70;83.10;;;;;;5072075;28;20087;-11
2023/01/23 09:03:24;;;;;;;1.70;1.52;;;6.90;82.50;;;;;;5072139;28;20036;-12
2023/01/23 09:05:50;;;;;;;2.20;1.52;;;6.90;82.10;;;;;;5072111;28;20365;-15
2023/01/23 09:08:16;;;;;;;1.40;1.30;;;7.00;81.60;;;;;;5071794;28;20542;-12
2023/01/23 09:10:42;;;;;;;1.67;1.30;;;7.10;81.40;;;;;;5073031;28;20016;-11
2023/01/23 09:13:08;;;;;;;1.63;1.40;;;7.10;81.20;;;;;;5075349;28;20024;-11
2023/01/23 09:15:38;;;;;;;3.22;1.40;;;7.10;81.10;;;;;;5075271;28;20028;-11
2023/01/23 09:18:04;;;;;;;1.58;1.00;;;7.10;81.10;;;;;;5075818;28;20040;-10
2023/01/23 09:20:29;;;;;;;2.45;1.23;;;7.20;80.60;;;;;;5075262;28;20064;-11
2023/01/23 09:22:55;;;;;;;1.55;1.27;;;7.20;80.80;;;;;;5074909;28;20071;-11
2023/01/23 09:25:21;;;;;;;2.42;1.40;;;7.30;80.40;;;;;;5075177;28;20104;-10
2023/01/23 09:27:47;;;;;;;2.25;1.45;;;7.40;80.00;;;;;;5075231;28;20115;-11
2023/01/23 09:30:13;;;;;;;2.42;1.27;;;7.40;80.10;;;;;;5075117;28;20140;-11
2023/01/23 09:32:39;;;;;;;3.25;1.63;;;7.40;80.40;;;;;;5075137;28;20024;-10
2023/01/23 09:35:05;;;;;;;1.05;0.90;;;7.40;79.80;;;;;;5074814;28;20930;-10
2023/01/23 09:37:58;;;;;;;2.95;1.65;;;7.60;79.20;;;;;;5075150;28;20052;-12
2023/01/23 09:40:21;;;;;;;2.45;1.77;;;7.60;79.30;;;;;;5075057;28;20041;-12
2023/01/23 09:42:48;;;;;;;3.20;1.75;;;7.50;79.50;;;;;;5074599;28;20081;-11
2023/01/23 09:45:20;;;;;;;2.13;1.75;;;7.60;79.40;;;;;;5074871;28;20096;-12
2023/01/23 09:48:08;;;;;;;2.53;1.60;;;7.60;79.20;;;;;;5074734;28;20023;-11
2023/01/23 09:50:39;;;;;;;3.38;1.65;;;7.60;79.40;;;;;;5075071;28;20097;-11
2023/01/23 09:53:12;;;;;;;2.10;1.60;;;7.50;79.80;;;;;;5074459;28;20024;-12
2023/01/23 09:55:48;;;;;;;2.10;1.70;;;7.50;79.70;;;;;;5075119;28;20028;-11
2023/01/23 09:58:43;;;;;;;5.15;1.48;;;7.60;79.20;;;;;;5074622;28;20070;-11
2023/01/23 10:01:12;;;;;;;1.55;1.30;;;7.70;79.20;;;;;;5032294;28;20520;-12
2023/01/23 10:03:38;;;;;;;2.05;1.38;;;7.60;78.90;;;;;;5032623;28;20116;-12
2023/01/23 10:06:14;;;;;;;2.90;1.63;;;7.70;78.80;;;;;;5032553;28;20069;-12
2023/01/23 10:08:59;;;;;;;3.35;1.58;;;7.70;78.90;;;;;;5032417;28;20026;-12
2023/01/23 10:11:42;;;;;;;;;;;7.70;78.90;;;;;;5032618;28;20390;-11
2023/01/23 10:14:14;;;;;;;2.22;1.40;;;7.70;79.10;;;;;;5032125;28;20435;-12
2023/01/23 10:16:52;;;;;;;3.00;1.80;;;7.80;78.60;;;;;;5032199;28;20460;-12
2023/01/23 10:19:22;;;;;;;5.47;1.80;;;7.80;78.30;;;;;;5032325;28;20053;-11
2023/01/23 10:22:19;;;;;;;3.97;1.92;;;7.90;78.30;;;;;;5031614;28;20033;-12
2023/01/23 10:24:48;;;;;;;5.22;1.90;;;7.90;78.60;;;;;;5031869;28;20112;-10
2023/01/23 10:27:19;;;;;;;3.05;1.63;;;7.90;78.10;;;;;;5031817;28;20021;-12
2023/01/23 10:29:55;;;;;;;2.92;1.70;;;7.90;78.40;;;;;;5032367;28;20040;-11
2023/01/23 10:32:23;;;;;;;1.75;1.20;;;7.80;78.40;;;;;;5031814;28;20612;-11
2023/01/23 10:35:11;;;;;;;2.63;1.17;;;8.00;77.90;;;;;;5031344;28;20049;-11
2023/01/23 10:37:49;;;;;;;1.42;1.17;;;7.90;77.90;;;;;;5043626;28;20090;-11
2023/01/23 10:43:15;;;;;;;1.60;1.50;;;8.00;77.40;;;;;;5073805;28;20495;-12
2023/01/23 10:45:42;;;;;;;5.80;1.75;;;8.00;78.20;;;;;;5073545;28;20033;-12
2023/01/23 10:48:39;;;;;;;1.85;1.30;;;7.90;78.70;;;;;;5073593;28;20408;-12
2023/01/23 10:51:23;;;;;;;2.83;1.65;;;8.00;78.70;;;;;;5072114;28;20480;-13
2023/01/23 10:54:04;;;;;;;2.20;1.42;;;8.00;79.20;;;;;;5073545;28;20032;-12
2023/01/23 10:56:32;;;;;;;1.95;1.73;;;7.90;79.30;;;;;;5073267;28;20041;-12
2023/01/23 10:59:01;;;;;;;3.28;1.75;;;7.90;79.80;;;;;;5073228;28;20028;-12
2023/01/23 11:01:32;;;;;;;3.17;2.10;;;7.90;79.80;;;;;;5073440;28;20519;-13
2023/01/23 11:04:18;;;;;;;3.13;2.20;;;7.90;79.80;;;;;;5073658;28;20020;-13
2023/01/23 11:07:02;;;;;;;3.17;2.13;;;7.90;80.10;;;;;;5073315;28;20029;-13
2023/01/23 11:09:29;;;;;;;4.18;2.67;;;7.90;80.20;;;;;;5073551;28;20115;-13
2023/01/23 11:12:00;;;;;;;3.95;2.33;;;7.80;80.90;;;;;;5073419;28;20028;-13
2023/01/23 11:14:26;;;;;;;3.08;2.03;;;7.70;81.00;;;;;;5073163;28;20052;-13
2023/01/23 11:17:12;;;;;;;3.03;2.15;;;7.70;81.20;;;;;;5072955;28;20110;-12
2023/01/23 11:19:38;;;;;;;3.42;2.03;;;7.60;82.30;;;;;;5073053;28;20016;-13
2023/01/23 11:22:22;;;;;;;4.13;2.63;;;7.50;82.10;;;;;;5072926;28;20036;-12
2023/01/23 11:24:48;;;;;;;;;;;7.50;82.70;;;;;;5073438;28;20070;-12
2023/01/23 11:27:14;;;;;;;4.93;2.95;;;7.40;83.00;;;;;;5073107;28;20307;-14
2023/01/23 11:29:54;;;;;;;3.58;2.47;;;7.50;82.40;;;;;;5072691;28;20388;-13
2023/01/23 11:32:21;;;;;;;3.88;2.28;;;7.50;82.60;;;;;;5072610;28;20502;-12
2023/01/23 11:34:51;;;;;;;8.50;3.13;;;7.60;82.50;;;;;;5071928;28;20037;-12
2023/01/23 11:37:31;;;;;;;4.60;2.55;;;7.60;82.70;;;;;;5072710;28;20021;-12
2023/01/23 11:40:15;;;;;;;6.07;2.88;;;7.50;83.00;;;;;;5073097;28;20051;-11
2023/01/23 11:42:43;;;;;;;3.17;1.92;;;7.50;83.00;;;;;;5071383;28;20162;-11
2023/01/23 11:45:20;;;;;;;3.70;2.03;;;7.60;82.80;;;;;;5072418;28;20028;-11
2023/01/23 11:48:01;;;;;;;3.53;2.20;;;7.60;83.20;;;;;;5072588;28;20473;-12
2023/01/23 11:50:45;;;;;;;2.92;2.13;;;7.60;83.40;;;;;;5072619;28;20063;-11
2023/01/23 11:53:48;;;;;;;4.50;2.38;;;7.60;83.20;;;;;;5072932;28;20029;-12
2023/01/23 11:56:37;;;;;;;2.97;1.88;;;7.90;81.80;;;;;;5056715;28;20128;-11
2023/01/23 11:59:23;;;;;;;2.97;1.83;;;7.90;81.40;;;;;;5072251;28;20403;-12
2023/01/23 12:02:16;;;;;;;4.25;1.92;;;7.90;81.20;;;;;;5072841;28;20036;-12
2023/01/23 12:05:19;;;;;;;3.08;2.10;;;7.90;82.00;;;;;;5072889;28;20024;-11
2023/01/23 12:08:24;;;;;;;4.57;2.17;;;7.80;81.90;;;;;;5072308;28;20119;-12
2023/01/23 12:11:12;;;;;;;2.92;1.73;;;7.90;81.70;;;;;;5072797;28;20469;-11
2023/01/23 12:13:50;;;;;;;3.75;2.25;;;7.90;81.50;;;;;;5072577;28;20101;-12
2023/01/23 12:16:47;;;;;;;7.93;3.75;;;7.90;81.60;;;;;;5072917;28;20025;-10
2023/01/23 12:19:20;;;;;;;3.72;2.22;;;7.90;81.10;;;;;;5072298;28;20036;-11
2023/01/23 12:22:08;;;;;;;2.60;1.88;;;7.90;80.80;;;;;;5072526;28;20028;-12
2023/01/23 12:24:55;;;;;;;4.07;2.60;;;8.00;80.60;;;;;;5072660;28;20032;-11
2023/01/23 12:27:42;;;;;;;4.15;2.60;;;8.00;81.10;;;;;;5072829;28;20025;-12
2023/01/23 12:30:26;;;;;;;3.95;2.33;;;8.00;80.70;;;;;;5072658;28;20035;-12
2023/01/23 12:33:25;;;;;;;4.10;2.58;;;8.00;80.80;;;;;;5072262;28;20021;-12
2023/01/23 12:36:09;;;;;;;5.80;2.67;;;8.10;81.00;;;;;;5030083;28;20547;-12
2023/01/23 12:38:46;;;;;;;;;;;8.10;81.00;;;;;;5030509;28;20424;-11
2023/01/23 12:41:48;;;;;;;4.45;2.17;;;8.20;80.30;;;;;;5030152;28;19909;-11
2023/01/23 12:44:18;;;;;;;4.35;1.98;;;8.30;80.40;;;;;;4952532;28;20604;-10
2023/01/23 12:47:09;;;;;;;1.80;1.50;;;8.30;80.20;;;;;;4955785;29;20039;-11
2023/01/23 12:49:38;;;;;;;2.47;1.70;;;8.40;79.80;;;;;;4955799;29;20476;-12
2023/01/23 12:52:20;;;;;;;11.65;1.65;;;8.40;78.50;;;;;;4955502;29;20075;-11
2023/01/23 12:55:11;;;;;;;2.40;1.65;;;8.50;78.90;;;;;;4955326;29;20062;-12
2023/01/23 12:57:38;;;;;;;2.20;1.65;;;8.60;78.30;;;;;;4955337;29;20512;-11
2023/01/23 13:00:40;;;;;;;2.38;1.65;;;8.70;77.70;;;;;;4955535;29;20035;-11
2023/01/23 13:03:34;;;;;;;1.80;1.15;;;8.70;77.60;;;;;;4955243;29;20039;-11
2023/01/23 13:06:00;;;;;;;1.83;1.40;;;8.80;77.20;;;;;;4955261;29;20047;-11
2023/01/23 13:09:02;;;;;;;1.48;1.23;;;8.80;77.30;;;;;;4955249;29;20031;-13
2023/01/23 13:11:43;;;;;;;1.30;1.20;;;8.90;76.60;;;;;;4975443;28;20126;-11
2023/01/23 13:14:30;;;;;;;1.98;1.42;;;8.80;77.30;;;;;;4993947;28;20197;-11
2023/01/23 13:16:58;;;;;;;3.25;1.38;;;8.90;76.60;;;;;;4993595;28;20045;-12
2023/01/23 13:22:29;;;;;;;1.85;1.10;;;8.90;76.60;;;;;;5075321;28;20044;-11
2023/01/23 13:25:13;;;;;;;3.17;1.67;;;8.90;76.20;;;;;;5075095;28;20021;-11
2023/01/23 13:27:46;;;;;;;;;;;9.00;75.80;;;;;;5075813;28;20119;-11
2023/01/23 13:30:21;;;;;;;1.20;1.10;;;9.00;75.60;;;;;;5075178;28;20062;-11
2023/01/23 13:32:48;;;;;;;1.02;0.82;;;9.00;75.00;;;;;;5075160;28;20028;-12
2023/01/23 13:35:38;;;;;;;3.00;1.30;;;9.00;75.20;;;;;;5074680;28;20516;-12
2023/01/23 13:38:28;;;;;;;2.83;1.55;;;8.90;75.40;;;;;;5075125;28;20028;-11
2023/01/23 13:41:17;;;;;;;2.55;2.03;;;9.00;74.90;;;;;;5075036;28;20191;-12
2023/01/23 13:43:48;;;;;;;1.75;1.50;;;9.00;75.00;;;;;;5075015;28;20394;-12